Time;durP1;ratioP1;P1;durP2;ratioP2;P2;SDS_P1;SDS_P2;PMS_P1;PMS_P2;Temp;Humidity;BMP_temperature;BMP_pressure;BME280_temperature;BME280_humidity;BME280_pressure;Samples;Min_cycle;Max_cycle;Signal;HPM_P1;HPM_P2
2023/11/16 00:02:57;;;;;;;16.40;7.70;;;;;;;4.59;88.09;100237.91;129611;1262;115146;-59
2023/11/16 00:05:59;;;;;;;16.50;7.50;;;;;;;4.56;88.34;100241.52;129555;1260;115248;-64
2023/11/16 00:09:01;;;;;;;15.20;7.40;;;;;;;4.55;88.63;100241.54;129748;1263;114741;-65
2023/11/16 00:12:04;;;;;;;11.60;6.90;;;;;;;4.57;88.92;100242.02;129527;1259;115240;-59
2023/11/16 00:15:07;;;;;;;13.50;7.70;;;;;;;4.60;89.22;100246.55;129623;1263;114805;-63
2023/11/16 00:18:09;;;;;;;13.30;7.80;;;;;;;4.63;89.35;100249.30;129787;1263;114693;-65
2023/11/16 00:21:12;;;;;;;20.60;8.00;;;;;;;4.65;89.50;100249.74;129627;1262;114730;-60
2023/11/16 00:24:14;;;;;;;14.60;8.20;;;;;;;4.68;89.52;100250.02;129733;1262;114714;-60
2023/11/16 00:27:16;;;;;;;17.20;9.40;;;;;;;4.73;89.72;100246.55;129353;1281;128578;-63
2023/11/16 00:30:18;;;;;;;18.50;11.10;;;;;;;4.78;90.15;100251.02;129543;1262;114993;-62
2023/11/16 00:33:20;;;;;;;15.60;10.80;;;;;;;4.84;90.27;100250.34;129737;1260;114681;-63
2023/11/16 00:36:23;;;;;;;22.50;11.10;;;;;;;4.90;90.35;100254.44;129549;1262;114709;-61
2023/11/16 00:39:26;;;;;;;17.00;10.50;;;;;;;4.95;90.62;100253.58;129555;1263;114682;-64
2023/11/16 00:42:28;;;;;;;18.40;10.80;;;;;;;5.02;90.78;100256.76;129544;1262;116434;-61
2023/11/16 00:45:31;;;;;;;14.90;9.20;;;;;;;5.09;91.00;100254.63;129668;1262;114735;-60
2023/11/16 00:48:33;;;;;;;16.70;10.70;;;;;;;5.14;91.05;100245.45;129463;1264;127622;-59
2023/11/16 00:51:35;;;;;;;17.70;9.20;;;;;;;5.20;91.34;100250.23;129664;1263;114716;-62
2023/11/16 00:54:37;;;;;;;18.70;9.60;;;;;;;5.25;91.36;100252.39;129611;1262;115343;-65
2023/11/16 00:57:40;;;;;;;19.10;9.70;;;;;;;5.31;91.39;100249.23;129614;1281;114705;-63
2023/11/16 01:00:42;;;;;;;16.80;9.90;;;;;;;5.37;91.57;100246.05;129532;1258;114787;-60
2023/11/16 01:03:44;;;;;;;14.80;9.90;;;;;;;5.42;91.65;100242.73;129531;1271;114742;-61
2023/11/16 01:06:47;;;;;;;17.60;9.40;;;;;;;5.47;91.66;100242.05;129525;1281;115192;-62
2023/11/16 01:09:49;;;;;;;17.00;10.60;;;;;;;5.51;91.58;100242.27;129439;1281;129545;-65
2023/11/16 01:12:56;;;;;;;17.30;9.90;;;;;;;5.54;91.72;100245.71;129465;1262;115193;-63
2023/11/16 01:16:00;;;;;;;17.30;11.80;;;;;;;5.59;91.79;100244.86;129530;1260;115051;-61
2023/11/16 01:19:02;;;;;;;12.80;7.20;;;;;;;5.62;91.78;100249.19;129550;1266;114719;-61
2023/11/16 01:22:07;;;;;;;;;;;;;;;5.66;91.69;100252.27;129271;1268;114923;-58
2023/11/16 01:25:15;;;;;;;20.20;11.50;;;;;;;5.69;92.02;100253.98;129555;1261;114787;-63
2023/11/16 01:28:20;;;;;;;19.40;11.20;;;;;;;5.73;92.16;100252.77;129501;1262;114793;-63
2023/11/16 01:31:23;;;;;;;20.10;11.90;;;;;;;5.77;92.02;100256.02;129421;1264;114753;-61
2023/11/16 01:34:25;;;;;;;24.00;12.70;;;;;;;5.81;92.19;100250.60;129557;1260;114708;-64
2023/11/16 01:37:28;;;;;;;21.80;12.10;;;;;;;5.84;92.08;100254.22;129691;1276;114683;-60
2023/11/16 01:40:30;;;;;;;25.10;12.80;;;;;;;5.88;92.28;100246.46;129357;1281;114908;-66
2023/11/16 01:43:33;;;;;;;21.80;12.00;;;;;;;5.92;92.36;100247.24;129746;1281;114835;-61
2023/11/16 01:46:35;;;;;;;27.60;13.50;;;;;;;5.96;92.33;100250.84;129578;1262;115194;-63
2023/11/16 01:49:38;;;;;;;18.90;10.70;;;;;;;6.00;92.43;100252.16;129592;1261;114770;-64
2023/11/16 01:52:40;;;;;;;21.00;10.60;;;;;;;6.02;92.35;100251.40;129531;1259;116327;-59
2023/11/16 01:55:45;;;;;;;19.40;10.40;;;;;;;6.05;92.36;100251.67;129379;1259;114934;-59
2023/11/16 01:58:49;;;;;;;19.00;11.10;;;;;;;6.08;92.48;100247.30;129318;1268;114813;-59
2023/11/16 02:01:51;;;;;;;23.90;11.20;;;;;;;6.11;92.66;100248.11;129445;1260;128993;-60
2023/11/16 02:04:54;;;;;;;19.10;10.70;;;;;;;6.13;92.49;100249.25;129568;1281;114725;-61
2023/11/16 02:07:57;;;;;;;21.20;11.60;;;;;;;6.14;92.39;100242.69;129516;1260;114782;-60
2023/11/16 02:10:59;;;;;;;18.10;10.70;;;;;;;6.16;92.63;100247.43;129849;1260;115369;-61
2023/11/16 02:14:02;;;;;;;20.50;12.40;;;;;;;6.18;92.63;100253.90;129735;1281;114651;-60
2023/11/16 02:17:04;;;;;;;23.90;12.90;;;;;;;6.20;92.75;100256.30;129360;1265;114963;-59
2023/11/16 02:20:07;;;;;;;19.60;11.90;;;;;;;6.22;92.53;100255.90;129560;1273;114710;-60
2023/11/16 02:23:09;;;;;;;19.30;12.10;;;;;;;6.24;92.84;100256.73;129587;1281;114699;-62
2023/11/16 02:26:12;;;;;;;22.00;11.80;;;;;;;6.27;92.82;100255.05;129539;1281;114929;-65
2023/11/16 02:29:14;;;;;;;20.80;12.10;;;;;;;6.30;92.94;100251.92;129579;1281;114734;-60
2023/11/16 02:32:17;;;;;;;17.40;11.50;;;;;;;6.31;93.21;100246.73;129224;1271;115514;-60
2023/11/16 02:35:19;;;;;;;17.10;11.20;;;;;;;6.35;92.90;100242.19;129454;1262;114654;-62
2023/11/16 02:38:21;;;;;;;15.70;10.50;;;;;;;6.36;93.00;100242.48;129444;1262;114970;-60
2023/11/16 02:41:24;;;;;;;20.60;11.70;;;;;;;6.36;92.92;100240.02;129577;1264;115865;-60
2023/11/16 02:44:30;;;;;;;21.20;11.00;;;;;;;6.36;92.93;100240.73;129584;1281;115157;-60
2023/11/16 02:47:32;;;;;;;17.90;10.80;;;;;;;6.37;93.01;100247.96;129285;1259;114886;-59
2023/11/16 02:50:34;;;;;;;17.30;10.30;;;;;;;6.37;92.96;100244.41;129475;1263;114788;-60
2023/11/16 02:53:37;;;;;;;16.40;10.90;;;;;;;6.38;92.85;100236.21;129811;1260;114788;-59
2023/11/16 02:56:39;;;;;;;17.30;10.90;;;;;;;6.39;92.98;100240.80;129368;1281;114870;-60
2023/11/16 02:59:42;;;;;;;16.70;10.30;;;;;;;6.41;93.05;100242.52;129520;1257;114715;-62
2023/11/16 03:02:49;;;;;;;19.90;11.10;;;;;;;6.42;93.14;100243.57;129594;1262;114741;-60
2023/11/16 03:05:51;;;;;;;16.50;11.50;;;;;;;6.43;92.96;100243.00;129762;1281;114710;-59
2023/11/16 03:08:53;;;;;;;21.60;10.80;;;;;;;6.44;92.97;100242.61;129700;1271;116295;-59
2023/11/16 03:11:55;;;;;;;18.40;11.60;;;;;;;6.45;93.11;100236.02;129624;1262;114745;-61
2023/11/16 03:14:58;;;;;;;20.40;11.40;;;;;;;6.46;93.28;100241.63;129536;1262;114907;-67
2023/11/16 03:18:00;;;;;;;19.20;12.10;;;;;;;6.48;92.99;100241.04;129610;1271;114713;-64
2023/11/16 03:21:02;;;;;;;21.20;12.10;;;;;;;6.48;92.96;100241.55;129638;1272;114880;-67
2023/11/16 03:24:09;;;;;;;19.80;11.70;;;;;;;6.49;93.18;100238.52;129781;1262;114710;-63
2023/11/16 03:27:11;;;;;;;18.40;10.30;;;;;;;6.49;93.08;100245.63;129885;1263;114704;-60
2023/11/16 03:30:16;;;;;;;18.40;10.60;;;;;;;6.48;93.12;100243.33;129731;1271;114713;-60
2023/11/16 03:33:18;;;;;;;14.50;10.10;;;;;;;6.49;93.06;100245.09;129366;1279;114657;-60
2023/11/16 03:36:20;;;;;;;17.10;10.40;;;;;;;6.49;93.24;100249.50;129653;1281;114865;-62
2023/11/16 03:39:22;;;;;;;16.10;11.10;;;;;;;6.50;93.37;100253.38;129555;1276;114711;-60
2023/11/16 03:42:24;;;;;;;14.70;9.70;;;;;;;6.52;93.34;100255.64;129574;1273;115230;-59
2023/11/16 03:45:26;;;;;;;19.20;10.90;;;;;;;6.53;93.26;100257.92;129634;1262;114848;-65
2023/11/16 03:48:29;;;;;;;15.40;11.10;;;;;;;6.55;93.22;100259.08;129695;1262;115167;-63
2023/11/16 03:51:31;;;;;;;19.50;11.30;;;;;;;6.56;93.62;100259.22;129326;1264;114828;-64
2023/11/16 03:54:33;;;;;;;15.10;10.10;;;;;;;6.58;93.47;100254.89;129734;1263;114778;-65
2023/11/16 03:57:35;;;;;;;16.40;10.90;;;;;;;6.60;93.35;100253.61;129600;1262;115135;-66
2023/11/16 04:00:37;;;;;;;14.40;10.20;;;;;;;6.62;93.48;100257.63;129322;1281;127875;-63
2023/11/16 04:03:39;;;;;;;15.20;10.50;;;;;;;6.63;93.39;100257.92;129492;1277;114812;-59
2023/11/16 04:06:41;;;;;;;16.30;10.40;;;;;;;6.64;93.32;100255.76;129630;1262;114768;-59
2023/11/16 04:09:43;;;;;;;19.20;11.90;;;;;;;6.66;93.81;100253.40;129443;1257;114770;-59
2023/11/16 04:12:45;;;;;;;17.20;11.00;;;;;;;6.68;93.74;100251.91;129599;1261;114757;-59
2023/11/16 04:15:47;;;;;;;17.00;12.40;;;;;;;6.69;93.72;100247.59;129495;1262;115185;-60
2023/11/16 04:18:53;;;;;;;17.30;11.80;;;;;;;6.72;93.78;100247.85;129489;1270;114726;-59
2023/11/16 04:21:57;;;;;;;22.20;12.00;;;;;;;6.73;93.90;100244.98;129458;1281;129766;-59
2023/11/16 04:24:59;;;;;;;19.50;11.70;;;;;;;6.74;93.61;100241.23;129515;1272;114725;-59
2023/11/16 04:28:04;;;;;;;18.70;11.80;;;;;;;6.75;93.79;100238.72;129557;1262;114627;-65
2023/11/16 04:31:09;;;;;;;;;;;;;;;6.76;93.94;100235.84;129616;1263;114708;-66
2023/11/16 04:34:12;;;;;;;18.30;11.40;;;;;;;6.76;93.72;100233.01;129523;1271;114812;-66
2023/11/16 04:37:14;;;;;;;16.70;10.90;;;;;;;6.77;93.96;100233.48;129548;1263;114767;-65
2023/11/16 04:40:16;;;;;;;18.20;11.30;;;;;;;6.78;93.99;100233.48;129551;1263;115369;-64
2023/11/16 04:43:20;;;;;;;14.40;10.70;;;;;;;6.78;93.69;100233.83;129761;1281;115160;-65
2023/11/16 04:46:25;;;;;;;20.10;11.60;;;;;;;6.79;93.83;100231.83;129526;1262;115129;-61
2023/11/16 04:49:27;;;;;;;19.40;11.40;;;;;;;6.79;93.88;100227.02;129350;1266;114804;-59
2023/11/16 04:52:33;;;;;;;17.40;11.40;;;;;;;6.80;93.88;100222.39;129503;1281;114629;-59
2023/11/16 04:55:35;;;;;;;21.50;11.50;;;;;;;6.80;93.89;100223.61;129564;1281;128779;-59
2023/11/16 04:58:38;;;;;;;17.20;10.30;;;;;;;6.81;93.76;100229.96;129558;1270;114811;-59
2023/11/16 05:01:40;;;;;;;19.00;11.10;;;;;;;6.80;93.92;100224.33;129564;1258;115438;-62
2023/11/16 05:04:44;;;;;;;16.30;10.10;;;;;;;6.79;93.69;100221.67;129224;1263;114805;-65
2023/11/16 05:07:46;;;;;;;17.00;11.00;;;;;;;6.79;93.97;100223.46;129249;1279;116464;-59
2023/11/16 05:10:48;;;;;;;17.80;10.70;;;;;;;6.80;94.04;100222.92;129481;1266;115306;-59
2023/11/16 05:13:50;;;;;;;15.80;10.20;;;;;;;6.80;94.02;100218.63;129570;1263;115391;-59
2023/11/16 05:16:52;;;;;;;19.80;10.40;;;;;;;6.82;94.17;100223.90;129263;1281;128049;-64
2023/11/16 05:19:55;;;;;;;17.60;10.80;;;;;;;6.83;94.10;100226.71;129508;1281;114801;-59
2023/11/16 05:22:57;;;;;;;15.50;9.60;;;;;;;6.83;93.99;100228.11;129554;1262;115421;-65
2023/11/16 05:25:59;;;;;;;15.60;8.70;;;;;;;6.83;93.75;100225.81;129609;1263;114821;-63
2023/11/16 05:29:01;;;;;;;13.90;9.00;;;;;;;6.81;93.99;100221.61;129347;1264;114857;-61
2023/11/16 05:32:06;;;;;;;12.10;9.20;;;;;;;6.81;94.14;100220.04;129497;1258;114780;-61
2023/11/16 05:35:09;;;;;;;13.00;9.40;;;;;;;6.81;93.95;100217.71;129498;1263;128795;-63
2023/11/16 05:38:11;;;;;;;17.60;10.40;;;;;;;6.82;94.06;100219.13;129518;1266;116176;-63
2023/11/16 05:41:13;;;;;;;14.90;9.20;;;;;;;6.81;94.02;100219.52;129629;1262;114780;-60
2023/11/16 05:44:20;;;;;;;13.20;9.60;;;;;;;6.80;94.27;100220.58;129703;1263;115331;-59
2023/11/16 05:47:22;;;;;;;14.00;10.10;;;;;;;6.81;94.35;100216.83;129621;1264;115179;-63
2023/11/16 05:50:24;;;;;;;15.50;10.30;;;;;;;6.81;94.16;100220.20;129482;1263;114804;-60
2023/11/16 05:53:26;;;;;;;14.20;10.20;;;;;;;6.82;94.28;100221.60;129570;1267;114832;-61
2023/11/16 05:56:29;;;;;;;16.30;11.00;;;;;;;6.81;94.39;100222.68;129544;1281;128850;-59
2023/11/16 05:59:31;;;;;;;18.70;12.40;;;;;;;6.82;94.44;100221.79;129539;1281;114837;-59
2023/11/16 06:02:34;;;;;;;16.50;11.90;;;;;;;6.81;94.58;100222.68;129601;1258;114647;-61
2023/11/16 06:05:39;;;;;;;15.60;11.30;;;;;;;6.80;94.35;100223.25;129278;1267;114835;-61
2023/11/16 06:08:41;;;;;;;16.80;10.70;;;;;;;6.80;94.34;100212.98;129493;1264;114724;-60
2023/11/16 06:11:43;;;;;;;15.10;11.80;;;;;;;6.79;94.50;100210.54;129547;1266;115198;-59
2023/11/16 06:14:54;;;;;;;18.70;10.90;;;;;;;6.78;94.70;100206.48;129654;1263;115231;-59
2023/11/16 06:18:00;;;;;;;16.00;10.20;;;;;;;6.78;94.89;100210.58;129514;1281;115346;-60
2023/11/16 06:21:03;;;;;;;17.00;11.20;;;;;;;6.78;94.73;100210.38;129270;1266;114814;-64
2023/11/16 06:24:06;;;;;;;16.40;10.90;;;;;;;6.78;94.83;100213.40;129537;1263;114734;-59
2023/11/16 06:27:09;;;;;;;18.30;10.80;;;;;;;6.77;94.69;100208.98;129488;1261;115398;-60
2023/11/16 06:30:14;;;;;;;15.50;10.80;;;;;;;6.79;94.94;100208.58;129636;1264;114741;-63
2023/11/16 06:33:16;;;;;;;16.90;11.60;;;;;;;6.79;95.04;100206.23;129505;1264;115283;-61
2023/11/16 06:36:22;;;;;;;16.60;10.90;;;;;;;6.80;94.99;100206.41;129456;1260;115416;-59
2023/11/16 06:39:26;;;;;;;14.90;11.60;;;;;;;6.78;94.86;100205.57;129655;1262;114747;-59
2023/11/16 06:42:28;;;;;;;18.50;11.90;;;;;;;6.79;94.87;100205.92;129414;1275;114804;-59
2023/11/16 06:45:37;;;;;;;17.10;11.20;;;;;;;6.78;94.87;100205.96;129406;1263;114782;-59
2023/11/16 06:48:40;;;;;;;14.20;10.90;;;;;;;6.77;95.02;100207.22;129235;1260;115254;-59
2023/11/16 06:51:42;;;;;;;15.90;11.70;;;;;;;6.79;95.00;100211.05;129574;1263;114769;-63
2023/11/16 06:54:44;;;;;;;12.80;10.40;;;;;;;6.80;94.97;100211.89;129525;1267;114752;-60
2023/11/16 06:57:47;;;;;;;15.30;10.70;;;;;;;6.78;94.78;100209.84;129586;1273;114725;-60
2023/11/16 07:00:51;;;;;;;15.80;10.80;;;;;;;6.75;94.73;100205.86;129350;1263;114826;-59
2023/11/16 07:03:53;;;;;;;14.40;10.30;;;;;;;6.73;94.42;100209.52;129676;1263;129148;-61
2023/11/16 07:06:56;;;;;;;20.10;11.00;;;;;;;6.69;94.57;100200.77;129809;1263;114786;-64
2023/11/16 07:09:58;;;;;;;14.20;10.40;;;;;;;6.65;94.57;100197.87;129628;1263;114785;-64
2023/11/16 07:13:03;;;;;;;16.10;10.90;;;;;;;6.62;94.19;100193.18;129630;1257;114709;-59
2023/11/16 07:16:05;;;;;;;19.30;11.70;;;;;;;6.62;94.32;100194.27;129574;1264;114686;-59
2023/11/16 07:19:07;;;;;;;16.60;11.00;;;;;;;6.67;94.45;100201.02;129492;1261;114799;-59
2023/11/16 07:22:10;;;;;;;19.60;11.80;;;;;;;6.70;94.65;100200.89;129582;1257;114737;-60
2023/11/16 07:25:15;;;;;;;21.30;11.40;;;;;;;6.76;94.65;100207.26;129371;1277;127720;-64
2023/11/16 07:28:18;;;;;;;18.20;11.60;;;;;;;6.83;94.82;100202.91;129631;1260;115170;-62
2023/11/16 07:31:21;;;;;;;21.40;12.30;;;;;;;6.91;95.05;100201.93;129539;1271;114817;-60
2023/11/16 07:34:23;;;;;;;17.10;11.90;;;;;;;6.95;94.76;100199.67;129464;1272;115182;-64
2023/11/16 07:37:27;;;;;;;19.90;11.50;;;;;;;7.01;94.70;100196.23;129526;1281;114712;-60
2023/11/16 07:40:29;;;;;;;15.60;11.30;;;;;;;7.11;94.67;100194.11;129499;1273;115382;-59
2023/11/16 07:43:31;;;;;;;14.90;11.20;;;;;;;7.21;94.78;100198.02;129695;1264;114719;-59
2023/11/16 07:46:34;;;;;;;17.50;10.70;;;;;;;7.30;95.11;100190.73;129833;1273;115246;-62
2023/11/16 07:49:36;;;;;;;14.50;11.20;;;;;;;7.36;94.77;100182.33;129752;1262;114725;-60
2023/11/16 07:52:44;;;;;;;18.40;11.10;;;;;;;7.42;94.90;100179.98;129506;1266;114905;-62
2023/11/16 07:55:49;;;;;;;18.20;10.90;;;;;;;7.47;94.82;100179.61;129405;1277;114787;-63
2023/11/16 07:58:52;;;;;;;16.20;11.00;;;;;;;7.51;94.73;100175.73;129427;1259;128727;-61
2023/11/16 08:02:00;;;;;;;19.80;10.50;;;;;;;7.56;94.87;100173.73;129668;1272;115189;-59
2023/11/16 08:05:05;;;;;;;17.80;10.60;;;;;;;7.62;94.99;100171.23;129504;1264;114858;-64
2023/11/16 08:08:11;;;;;;;18.90;11.00;;;;;;;7.67;94.86;100171.20;129498;1277;114674;-60
2023/11/16 08:11:14;;;;;;;14.60;10.60;;;;;;;7.76;95.04;100173.15;129400;1257;114869;-63
2023/11/16 08:14:16;;;;;;;18.70;11.30;;;;;;;7.91;95.38;100170.23;129452;1264;114721;-64
2023/11/16 08:17:19;;;;;;;19.20;11.30;;;;;;;8.07;95.36;100174.75;129623;1263;114783;-60
2023/11/16 08:20:28;;;;;;;18.20;10.90;;;;;;;8.22;94.83;100170.58;129555;1261;115369;-59
2023/11/16 08:23:30;;;;;;;18.10;10.30;;;;;;;8.38;94.82;100169.17;129381;1264;115356;-60
2023/11/16 08:26:33;;;;;;;12.60;9.50;;;;;;;8.56;94.62;100171.66;129718;1263;114779;-60
2023/11/16 08:29:34;;;;;;;16.00;10.60;;;;;;;8.70;94.23;100168.41;129596;1264;115262;-59
2023/11/16 08:32:37;;;;;;;16.50;9.80;;;;;;;8.81;94.35;100170.21;129285;1281;114793;-59
2023/11/16 08:35:39;;;;;;;19.60;10.10;;;;;;;8.88;93.87;100170.62;129448;1281;114786;-60
2023/11/16 08:38:42;;;;;;;20.20;10.90;;;;;;;8.92;93.68;100172.03;129472;1258;114796;-60
2023/11/16 08:41:45;;;;;;;17.60;10.60;;;;;;;8.94;93.37;100168.22;129687;1263;127608;-59
2023/11/16 08:44:47;;;;;;;16.60;10.20;;;;;;;8.96;93.39;100167.58;129708;1273;114708;-60
2023/11/16 08:47:59;;;;;;;18.40;9.30;;;;;;;9.00;93.50;100163.14;129536;1261;114741;-61
2023/11/16 08:51:07;;;;;;;19.20;8.10;;;;;;;9.04;93.39;100158.33;129453;1264;114796;-60
2023/11/16 08:54:11;;;;;;;15.80;13.00;;;;;;;9.07;93.19;100156.94;129709;1258;128741;-59
2023/11/16 08:57:13;;;;;;;23.30;15.90;;;;;;;9.11;93.16;100152.84;127029;1281;3725673;-62
2023/11/16 09:00:35;;;;;;;15.90;11.00;;;;;;;9.17;93.17;100144.91;129663;1262;115153;-65
2023/11/16 09:03:45;;;;;;;11.00;7.60;;;;;;;9.24;93.31;100147.62;129457;1263;114858;-63
2023/11/16 09:06:47;;;;;;;12.40;7.10;;;;;;;9.27;92.80;100146.58;129565;1262;115985;-64
2023/11/16 09:09:52;;;;;;;12.80;6.10;;;;;;;9.27;92.64;100147.47;129408;1263;115090;-64
2023/11/16 09:12:55;;;;;;;10.80;5.20;;;;;;;9.26;92.05;100152.71;129850;1263;114725;-61
2023/11/16 09:15:57;;;;;;;7.80;5.20;;;;;;;9.28;92.03;100147.81;129565;1258;115271;-62
2023/11/16 09:18:59;;;;;;;6.60;4.60;;;;;;;9.34;91.95;100150.20;129740;1263;114776;-61
2023/11/16 09:22:03;;;;;;;9.10;4.50;;;;;;;9.42;92.00;100143.55;129665;1264;116312;-63
2023/11/16 09:25:07;;;;;;;8.00;4.00;;;;;;;9.54;91.71;100145.34;129411;1281;114870;-59
2023/11/16 09:28:11;;;;;;;7.40;4.30;;;;;;;9.64;91.62;100141.46;129618;1264;114726;-61
2023/11/16 09:31:13;;;;;;;9.10;4.80;;;;;;;9.76;91.35;100139.29;129434;1267;127697;-60
2023/11/16 09:34:16;;;;;;;10.40;5.00;;;;;;;9.88;91.30;100137.83;129461;1273;117163;-60
2023/11/16 09:37:19;;;;;;;5.90;4.70;;;;;;;10.00;91.09;100134.73;129472;1273;114875;-60
2023/11/16 09:40:30;;;;;;;7.70;4.30;;;;;;;10.09;90.77;100132.66;129578;1264;114713;-60
2023/11/16 09:43:37;;;;;;;7.80;5.20;;;;;;;10.19;90.34;100134.49;129554;1264;114703;-71
2023/11/16 09:46:39;;;;;;;12.00;5.30;;;;;;;10.26;90.28;100129.98;129752;1267;128045;-69
2023/11/16 09:49:42;;;;;;;6.80;4.40;;;;;;;10.29;89.24;100121.29;129805;1263;114816;-68
2023/11/16 09:52:44;;;;;;;6.50;4.10;;;;;;;10.33;89.68;100118.21;129806;1262;114808;-72
2023/11/16 09:55:49;;;;;;;9.50;3.80;;;;;;;10.33;88.70;100113.61;129850;1264;115221;-71
2023/11/16 09:59:01;;;;;;;11.10;3.90;;;;;;;10.29;88.46;100106.48;129667;1258;114843;-70
2023/11/16 10:02:10;;;;;;;8.10;4.40;;;;;;;10.24;88.22;100101.77;129725;1269;114913;-68
2023/11/16 10:05:43;;;;;;;8.40;4.90;;;;;;;10.16;87.26;100094.45;129926;1281;127472;-68
2023/11/16 10:08:46;;;;;;;9.30;4.40;;;;;;;10.11;87.47;100092.79;129404;1270;115299;-72
2023/11/16 10:11:48;;;;;;;8.10;5.10;;;;;;;10.09;87.48;100089.13;129423;1268;114830;-74
2023/11/16 10:14:51;;;;;;;7.90;4.10;;;;;;;10.10;87.65;100086.21;129462;1268;114812;-69
2023/11/16 10:17:55;;;;;;;10.60;4.90;;;;;;;10.13;87.61;100084.45;129294;1268;114907;-74
2023/11/16 10:20:57;;;;;;;11.60;5.50;;;;;;;10.17;87.35;100083.67;129327;1270;114864;-74
2023/11/16 10:24:08;;;;;;;9.90;5.50;;;;;;;10.22;87.19;100084.02;129008;1271;114849;-76
2023/11/16 10:27:11;;;;;;;12.80;5.40;;;;;;;10.31;87.32;100080.65;129129;1266;114917;-70
2023/11/16 10:30:15;;;;;;;9.90;5.10;;;;;;;10.46;87.30;100075.10;129309;1278;114871;-68
2023/11/16 10:33:19;;;;;;;9.00;5.80;;;;;;;10.66;87.53;100071.57;129318;1269;114792;-74
2023/11/16 10:36:23;;;;;;;9.60;5.30;;;;;;;10.86;87.03;100064.41;129045;1270;127914;-73
2023/11/16 10:39:27;;;;;;;11.50;5.30;;;;;;;11.05;86.64;100060.69;129015;1267;116578;-73
2023/11/16 10:42:30;;;;;;;9.60;5.40;;;;;;;11.18;86.24;100055.86;129271;1265;114787;-74
2023/11/16 10:45:34;;;;;;;13.10;5.50;;;;;;;11.23;85.77;100056.11;129495;1259;114774;-73
2023/11/16 10:48:38;;;;;;;8.20;5.10;;;;;;;11.22;85.32;100051.34;129749;1281;114808;-70
2023/11/16 10:51:46;;;;;;;13.50;5.90;;;;;;;11.21;84.95;100045.89;129690;1281;128830;-70
2023/11/16 10:54:49;;;;;;;11.60;5.80;;;;;;;11.17;84.11;100040.18;129734;1258;115201;-68
2023/11/16 10:58:04;;;;;;;8.70;4.60;;;;;;;11.16;84.63;100037.73;129470;1270;114818;-73
2023/11/16 11:01:10;;;;;;;13.70;5.50;;;;;;;11.19;84.41;100029.50;129895;1257;114786;-72
2023/11/16 11:04:13;;;;;;;9.40;4.50;;;;;;;11.21;84.70;100028.14;129951;1265;114817;-73
2023/11/16 11:07:17;;;;;;;7.40;3.80;;;;;;;11.24;84.09;100021.39;129864;1266;128207;-73
2023/11/16 11:10:32;;;;;;;7.90;4.20;;;;;;;11.24;83.83;100007.42;129703;1264;114723;-72
2023/11/16 11:13:34;;;;;;;6.70;3.60;;;;;;;11.27;83.48;100002.63;129723;1265;114721;-69
2023/11/16 11:16:39;;;;;;;7.40;3.40;;;;;;;11.30;83.43;100009.78;129718;1281;114825;-68
2023/11/16 11:19:40;;;;;;;6.90;3.20;;;;;;;11.34;82.56;100007.96;129509;1262;114825;-68
2023/11/16 11:22:43;;;;;;;8.40;2.90;;;;;;;11.37;82.22;100001.33;129761;1262;114754;-72
2023/11/16 11:25:46;;;;;;;8.60;2.80;;;;;;;11.38;82.00;99993.93;129996;1257;114709;-78
2023/11/16 11:28:48;;;;;;;6.70;3.60;;;;;;;11.37;81.10;99988.08;129787;1263;116480;-76
2023/11/16 11:32:00;;;;;;;7.50;3.10;;;;;;;11.37;80.66;99988.65;129811;1262;114732;-70
2023/11/16 11:35:11;;;;;;;6.50;2.90;;;;;;;11.38;80.71;99989.30;129584;1258;114798;-68
2023/11/16 11:38:27;;;;;;;6.60;2.60;;;;;;;11.42;80.08;99987.48;129953;1273;114697;-68
2023/11/16 11:41:30;;;;;;;5.00;2.50;;;;;;;11.53;80.02;99983.97;129691;1262;128164;-72
2023/11/16 11:44:32;;;;;;;6.10;2.70;;;;;;;11.65;79.56;99984.35;129931;1275;114640;-70
2023/11/16 11:47:35;;;;;;;4.70;2.10;;;;;;;11.78;79.29;99976.44;129955;1271;114753;-70
2023/11/16 11:50:38;;;;;;;5.60;2.40;;;;;;;11.89;78.85;99964.67;129836;1262;114752;-66
2023/11/16 11:53:40;;;;;;;7.40;2.50;;;;;;;11.96;77.99;99961.73;129764;1281;114674;-72
2023/11/16 11:56:46;;;;;;;7.00;3.00;;;;;;;12.01;78.20;99964.19;129828;1262;114821;-77
2023/11/16 11:59:49;;;;;;;8.60;2.50;;;;;;;12.07;78.17;99954.81;129438;1265;128230;-77
2023/11/16 12:02:51;;;;;;;7.30;2.40;;;;;;;12.12;78.24;99952.40;129755;1263;114803;-75
2023/11/16 12:05:58;;;;;;;5.10;2.30;;;;;;;12.17;77.97;99952.30;129878;1257;114852;-67
2023/11/16 12:09:00;;;;;;;6.70;3.10;;;;;;;12.20;77.67;99944.00;129535;1262;115166;-74
2023/11/16 12:12:07;;;;;;;7.70;3.10;;;;;;;12.23;77.86;99938.48;129738;1264;114785;-72
2023/11/16 12:15:10;;;;;;;11.20;3.80;;;;;;;12.28;78.40;99933.89;129772;1257;128642;-73
2023/11/16 12:18:15;;;;;;;8.30;3.10;;;;;;;12.26;77.44;99935.42;129905;1258;115371;-68
2023/11/16 12:21:22;;;;;;;7.00;3.50;;;;;;;12.23;77.45;99927.02;129797;1257;114685;-72
2023/11/16 12:24:24;;;;;;;8.20;3.60;;;;;;;12.19;77.35;99922.26;129688;1277;115859;-75
2023/11/16 12:27:26;;;;;;;8.50;3.70;;;;;;;12.17;77.23;99921.45;129795;1257;114831;-70
2023/11/16 12:30:29;;;;;;;9.10;3.60;;;;;;;12.15;76.87;99916.92;129855;1259;115387;-72
2023/11/16 12:33:31;;;;;;;8.60;3.40;;;;;;;12.13;76.83;99915.62;129785;1260;129093;-72
2023/11/16 12:36:35;;;;;;;7.90;3.70;;;;;;;12.14;76.53;99912.55;129786;1262;114712;-75
2023/11/16 12:39:37;;;;;;;6.00;2.90;;;;;;;12.18;77.12;99911.41;129813;1262;114811;-73
2023/11/16 12:42:39;;;;;;;5.60;2.80;;;;;;;12.19;76.73;99910.28;129832;1262;115553;-68
2023/11/16 12:45:42;;;;;;;5.40;2.80;;;;;;;12.18;76.04;99905.30;129923;1262;115077;-62
2023/11/16 12:48:45;;;;;;;6.70;2.40;;;;;;;12.17;76.34;99904.80;129329;1265;114960;-61
2023/11/16 12:51:49;;;;;;;8.90;3.80;;;;;;;12.18;76.30;99903.52;129459;1281;114989;-62
2023/11/16 12:54:51;;;;;;;7.70;3.10;;;;;;;12.14;75.93;99895.67;129534;1258;114705;-60
2023/11/16 12:57:54;;;;;;;8.40;3.90;;;;;;;12.12;75.86;99899.59;129485;1262;114789;-61
2023/11/16 13:00:56;;;;;;;4.90;2.60;;;;;;;12.11;75.93;99901.09;129570;1262;114828;-63
2023/11/16 13:03:59;;;;;;;7.90;2.90;;;;;;;12.08;75.88;99893.92;129510;1262;114897;-61
2023/11/16 13:07:01;;;;;;;6.20;2.50;;;;;;;12.05;75.44;99893.39;129573;1263;115144;-61
2023/11/16 13:10:04;;;;;;;5.30;2.20;;;;;;;12.05;76.06;99900.02;129600;1263;114719;-60
2023/11/16 13:13:05;;;;;;;4.40;2.30;;;;;;;12.07;75.97;99893.96;129461;1281;128845;-62
2023/11/16 13:16:08;;;;;;;5.90;3.00;;;;;;;12.10;75.73;99892.86;129603;1257;114799;-61
2023/11/16 13:19:10;;;;;;;7.80;3.80;;;;;;;12.06;74.67;99892.66;129558;1257;114737;-61
2023/11/16 13:22:13;;;;;;;8.00;3.50;;;;;;;12.00;74.98;99890.98;129500;1264;114738;-63
2023/11/16 13:25:15;;;;;;;7.40;3.20;;;;;;;11.98;75.42;99892.02;129551;1281;114805;-61
2023/11/16 13:28:19;;;;;;;6.90;3.50;;;;;;;11.94;74.78;99896.91;129496;1263;114903;-62
2023/11/16 13:31:22;;;;;;;6.80;3.80;;;;;;;11.88;74.89;99900.16;129602;1263;114697;-60
2023/11/16 13:34:24;;;;;;;7.20;2.60;;;;;;;11.79;74.65;99918.40;129509;1275;114671;-61
2023/11/16 13:37:26;;;;;;;4.20;2.10;;;;;;;11.63;74.80;99921.67;129541;1281;115504;-65
2023/11/16 13:40:29;;;;;;;4.90;2.50;;;;;;;11.46;75.88;99925.89;129515;1281;115507;-61
2023/11/16 13:43:32;;;;;;;4.80;2.60;;;;;;;11.32;76.47;99927.27;129596;1257;114716;-60
2023/11/16 13:46:36;;;;;;;7.20;3.40;;;;;;;11.17;76.52;99923.11;129534;1275;115001;-60
2023/11/16 13:49:38;;;;;;;3.70;2.60;;;;;;;11.04;77.23;99909.02;129352;1259;127344;-61
2023/11/16 13:52:44;;;;;;;5.90;3.30;;;;;;;10.94;78.26;99900.83;129454;1262;115150;-61